
Distance (Route):
Temperature : -20.8°C
Humidity : 59.4%
Pressure : 425.4hPa| Receiver | Frames | First received | Last received |
|---|---|---|---|
| AUTORXJP | 226 | 2026-09-01 23:36:08 | 2026-09-02 01:37:52 |
| Receiver | Date | Latitude | Longitude | Direction | Speed | Altitude | Climb | Temperature | Humidity | Pressure | Voltage | Killtimer | Uptime | BKT | XDATA |
|---|---|---|---|---|---|---|---|---|---|---|---|---|---|---|---|
| AUTORXJP | 2026-09-02 01:37:52 | 43.90362 | 5.46967 | 92° | 62km/h | 7120m | -10.9m/s | -20.8°C | 59.4% | 425.4hPa | 0V | 00:00:00 | 00:00:00 | 00:00:00 | |
| AUTORXJP | 2026-09-02 01:37:21 | 43.90380 | 5.46592 | 97° | 62km/h | 7312m | -12.6m/s | -22.6°C | 63.9% | 414.1hPa | 0V | 00:00:00 | 00:00:00 | 00:00:00 | |
| AUTORXJP | 2026-09-02 01:36:50 | 43.90472 | 5.46001 | 105° | 53km/h | 7658m | -10.8m/s | -24.4°C | 34.2% | 395.1hPa | 0V | 00:00:00 | 00:00:00 | 00:00:00 | |
| AUTORXJP | 2026-09-02 01:36:18 | 43.90579 | 5.45453 | 103° | 58km/h | 8013m | -11.6m/s | -27.6°C | 38.5% | 376.1hPa | 0V | 00:00:00 | 00:00:00 | 00:00:00 | |
| AUTORXJP | 2026-09-02 01:35:47 | 43.90687 | 5.44853 | 103° | 64km/h | 8372m | -12.6m/s | -30.5°C | 32.7% | 357.6hPa | 0V | 00:00:00 | 00:00:00 | 00:00:00 | |
| AUTORXJP | 2026-09-02 01:35:16 | 43.90818 | 5.44167 | 99° | 77km/h | 8752m | -13.3m/s | -32.2°C | 32.2% | 339.0hPa | 0V | 00:00:00 | 00:00:00 | 00:00:00 | |
| AUTORXJP | 2026-09-02 01:34:45 | 43.90888 | 5.43310 | 92° | 80km/h | 9133m | -11.8m/s | -35.1°C | 49.7% | 321.2hPa | 0V | 00:00:00 | 00:00:00 | 00:00:00 | |
| AUTORXJP | 2026-09-02 01:34:14 | 43.90953 | 5.42500 | 96° | 71km/h | 9532m | -15.3m/s | -38.6°C | 60.7% | 303.2hPa | 0V | 00:00:00 | 00:00:00 | 00:00:00 | |
| AUTORXJP | 2026-09-02 01:33:43 | 43.91015 | 5.41641 | 94° | 82km/h | 9934m | -11.4m/s | -41.6°C | 63.2% | 285.9hPa | 0V | 00:00:00 | 00:00:00 | 00:00:00 | |
| AUTORXJP | 2026-09-02 01:33:12 | 43.91039 | 5.40766 | 91° | 78km/h | 10302m | -10.8m/s | -44.8°C | 62.5% | 270.5hPa | 0V | 00:00:00 | 00:00:00 | 00:00:00 | |
| AUTORXJP | 2026-09-02 01:32:41 | 43.91008 | 5.39773 | 81° | 99km/h | 10698m | -13.2m/s | -47.9°C | 64.7% | 254.8hPa | 0V | 00:00:00 | 00:00:00 | 00:00:00 | |
| AUTORXJP | 2026-09-02 01:32:10 | 43.90866 | 5.38692 | 79° | 99km/h | 11105m | -14.7m/s | -51.7°C | 51.9% | 239.2hPa | 0V | 00:00:00 | 00:00:00 | 00:00:00 | |
| AUTORXJP | 2026-09-02 01:31:39 | 43.90730 | 5.37549 | 85° | 108km/h | 11535m | -14.6m/s | -54.4°C | 28.0% | 223.7hPa | 0V | 00:00:00 | 00:00:00 | 00:00:00 | |
| AUTORXJP | 2026-09-02 01:31:08 | 43.90661 | 5.36466 | 87° | 93km/h | 11987m | -12.9m/s | -56.8°C | 18.3% | 208.7hPa | 0V | 00:00:00 | 00:00:00 | 00:00:00 | |
| AUTORXJP | 2026-09-02 01:30:37 | 43.90633 | 5.35408 | 90° | 99km/h | 12427m | -15.0m/s | -57.3°C | 6.4% | 194.5hPa | 0V | 00:00:00 | 00:00:00 | 00:00:00 | |
| AUTORXJP | 2026-09-02 01:30:05 | 43.90655 | 5.34462 | 95° | 82km/h | 12891m | -14.1m/s | -54.8°C | 3.9% | 181.0hPa | 0V | 00:00:00 | 00:00:00 | 00:00:00 | |
| AUTORXJP | 2026-09-02 01:29:35 | 43.90691 | 5.33598 | 84° | 73km/h | 13355m | -14.9m/s | -54.7°C | 2.5% | 168.3hPa | 0V | 00:00:00 | 00:00:00 | 00:00:00 | |
| AUTORXJP | 2026-09-02 01:29:03 | 43.90535 | 5.32786 | 73° | 82km/h | 13872m | -17.8m/s | -57.2°C | 1.1% | 155.1hPa | 0V | 00:00:00 | 00:00:00 | 00:00:00 | |
| AUTORXJP | 2026-09-02 01:28:32 | 43.90409 | 5.31873 | 82° | 88km/h | 14413m | -14.4m/s | -56.6°C | 0.5% | 142.3hPa | 0V | 00:00:00 | 00:00:00 | 00:00:00 | |
| AUTORXJP | 2026-09-02 01:28:01 | 43.90472 | 5.31018 | 102° | 69km/h | 15031m | -18.1m/s | -56.9°C | 0.0% | 129.3hPa | 0V | 00:00:00 | 00:00:00 | 00:00:00 | |
| AUTORXJP | 2026-09-02 01:27:30 | 43.90496 | 5.30314 | 91° | 64km/h | 15522m | -15.2m/s | -58.5°C | 0.0% | 119.5hPa | 0V | 00:00:00 | 00:00:00 | 00:00:00 | |
| AUTORXJP | 2026-09-02 01:26:59 | 43.90533 | 5.29597 | 85° | 60km/h | 15983m | -13.7m/s | -57.3°C | 0.0% | 111.1hPa | 0V | 00:00:00 | 00:00:00 | 00:00:00 | |
| AUTORXJP | 2026-09-02 01:26:28 | 43.90554 | 5.28972 | 85° | 57km/h | 16454m | -15.0m/s | -57.8°C | 0.0% | 103.1hPa | 0V | 00:00:00 | 00:00:00 | 00:00:00 | |
| AUTORXJP | 2026-09-02 01:25:57 | 43.90559 | 5.28429 | 88° | 47km/h | 16944m | -14.9m/s | -56.8°C | 0.0% | 95.4hPa | 0V | 00:00:00 | 00:00:00 | 00:00:00 | |
| AUTORXJP | 2026-09-02 01:25:26 | 43.90592 | 5.28046 | 98° | 27km/h | 17453m | -15.4m/s | -57.6°C | 0.0% | 88.0hPa | 0V | 00:00:00 | 00:00:00 | 00:00:00 | |
| AUTORXJP | 2026-09-02 01:24:55 | 43.90593 | 5.27665 | 84° | 35km/h | 17973m | -16.2m/s | -56.8°C | 0.0% | 81.1hPa | 0V | 00:00:00 | 00:00:00 | 00:00:00 | |
| AUTORXJP | 2026-09-02 01:24:24 | 43.90581 | 5.27233 | 118° | 37km/h | 18512m | -17.4m/s | -58.1°C | 0.0% | 74.4hPa | 0V | 00:00:00 | 00:00:00 | 00:00:00 | |
| AUTORXJP | 2026-09-02 01:23:53 | 43.90574 | 5.26981 | 76° | 33km/h | 19075m | -17.8m/s | -56.9°C | 0.0% | 68.0hPa | 0V | 00:00:00 | 00:00:00 | 00:00:00 | |
| AUTORXJP | 2026-09-02 01:23:22 | 43.90609 | 5.26706 | 54° | 11km/h | 19655m | -18.9m/s | -56.8°C | 0.0% | 62.1hPa | 0V | 00:00:00 | 00:00:00 | 00:00:00 | |
| AUTORXJP | 2026-09-02 01:22:50 | 43.90637 | 5.26511 | 126° | 20km/h | 20259m | -18.8m/s | -56.0°C | 0.0% | 56.4hPa | 0V | 00:00:00 | 00:00:00 | 00:00:00 | |
| AUTORXJP | 2026-09-02 01:22:19 | 43.90695 | 5.26410 | 326° | 9km/h | 20894m | -20.2m/s | -54.7°C | 0.0% | 51.0hPa | 0V | 00:00:00 | 00:00:00 | 00:00:00 | |
| AUTORXJP | 2026-09-02 01:21:48 | 43.90705 | 5.26455 | 268° | 20km/h | 21586m | -22.3m/s | -54.5°C | 0.0% | 45.8hPa | 0V | 00:00:00 | 00:00:00 | 00:00:00 | |
| AUTORXJP | 2026-09-02 01:21:17 | 43.90613 | 5.26536 | 34° | 11km/h | 22275m | -21.3m/s | -54.1°C | 0.0% | 41.1hPa | 0V | 00:00:00 | 00:00:00 | 00:00:00 | |
| AUTORXJP | 2026-09-02 01:20:46 | 43.90673 | 5.26453 | 236° | 16km/h | 23033m | -29.9m/s | -53.7°C | 0.0% | 36.5hPa | 0V | 00:00:00 | 00:00:00 | 00:00:00 | |
| AUTORXJP | 2026-09-02 01:20:15 | 43.90669 | 5.26510 | 132° | 5km/h | 24014m | -39.8m/s | -53.0°C | 0.0% | 31.3hPa | 0V | 00:00:00 | 00:00:00 | 00:00:00 | |
| AUTORXJP | 2026-09-02 01:19:44 | 43.90689 | 5.26539 | 332° | 16km/h | 25266m | -38.8m/s | -50.9°C | 0.0% | 25.7hPa | 0V | 00:00:00 | 00:00:00 | 00:00:00 | |
| AUTORXJP | 2026-09-02 01:19:13 | 43.90660 | 5.26614 | 292° | 13km/h | 26491m | -39.0m/s | -48.6°C | 0.0% | 21.3hPa | 0V | 00:00:00 | 00:00:00 | 00:00:00 | |
| AUTORXJP | 2026-09-02 01:18:42 | 43.90573 | 5.26740 | 338° | 27km/h | 27730m | -36.4m/s | -45.8°C | 0.0% | 17.5hPa | 0V | 00:00:00 | 00:00:00 | 00:00:00 | |
| AUTORXJP | 2026-09-02 01:18:11 | 43.90500 | 5.26661 | 98° | 18km/h | 28781m | -34.0m/s | -42.6°C | 0.0% | 15.0hPa | 0V | 00:00:00 | 00:00:00 | 00:00:00 | |
| AUTORXJP | 2026-09-02 01:17:40 | 43.90544 | 5.26581 | 190° | 7km/h | 29879m | -32.9m/s | -41.9°C | 0.0% | 12.7hPa | 0V | 00:00:00 | 00:00:00 | 00:00:00 | |
| AUTORXJP | 2026-09-02 01:17:08 | 43.90542 | 5.26659 | 265° | 9km/h | 31033m | -39.7m/s | -43.1°C | 0.0% | 10.6hPa | 0V | 00:00:00 | 00:00:00 | 00:00:00 | |
| AUTORXJP | 2026-09-02 01:16:37 | 43.90544 | 5.26777 | 243° | 18km/h | 32204m | -36.3m/s | -41.9°C | 0.0% | 8.8hPa | 0V | 00:00:00 | 00:00:00 | 00:00:00 | |
| AUTORXJP | 2026-09-02 01:16:06 | 43.90541 | 5.26806 | 250° | 13km/h | 32426m | 6.3m/s | -41.4°C | 0.0% | 8.6hPa | 0V | 00:00:00 | 00:00:00 | 00:00:00 | |
| AUTORXJP | 2026-09-02 01:15:35 | 43.90540 | 5.26930 | 267° | 35km/h | 32276m | 6.6m/s | -41.7°C | 0.0% | 8.8hPa | 0V | 00:00:00 | 00:00:00 | 00:00:00 | |
| AUTORXJP | 2026-09-02 01:15:04 | 43.90523 | 5.27045 | 259° | 33km/h | 32128m | 6.3m/s | -42.1°C | 0.0% | 9.0hPa | 0V | 00:00:00 | 00:00:00 | 00:00:00 | |
| AUTORXJP | 2026-09-02 01:14:34 | 43.90438 | 5.27093 | 290° | 31km/h | 31982m | 5.0m/s | -41.7°C | 0.0% | 9.2hPa | 0V | 00:00:00 | 00:00:00 | 00:00:00 | |
| AUTORXJP | 2026-09-02 01:14:02 | 43.90317 | 5.27248 | 302° | 44km/h | 31840m | 2.0m/s | -41.3°C | 0.0% | 9.4hPa | 0V | 00:00:00 | 00:00:00 | 00:00:00 | |
| AUTORXJP | 2026-09-02 01:13:31 | 43.90165 | 5.27478 | 302° | 22km/h | 31700m | 4.9m/s | -42.0°C | 0.0% | 9.6hPa | 0V | 00:00:00 | 00:00:00 | 00:00:00 | |
| AUTORXJP | 2026-09-02 01:12:29 | 43.90140 | 5.27881 | 80° | 13km/h | 31431m | 6.4m/s | -42.3°C | 0.0% | 10.0hPa | 0V | 00:00:00 | 00:00:00 | 00:00:00 | |
| AUTORXJP | 2026-09-02 01:11:58 | 43.90218 | 5.27907 | 195° | 2km/h | 31283m | 4.0m/s | -42.5°C | 0.0% | 10.2hPa | 0V | 00:00:00 | 00:00:00 | 00:00:00 | |
| AUTORXJP | 2026-09-02 01:11:27 | 43.90267 | 5.27849 | 206° | 24km/h | 31131m | 3.5m/s | -42.5°C | 0.0% | 10.5hPa | 0V | 00:00:00 | 00:00:00 | 00:00:00 | |
| AUTORXJP | 2026-09-02 01:10:55 | 43.90212 | 5.27768 | 41° | 20km/h | 30970m | 5.2m/s | -43.1°C | 0.0% | 10.8hPa | 0V | 00:00:00 | 00:00:00 | 00:00:00 | |
| AUTORXJP | 2026-09-02 01:10:25 | 43.90167 | 5.27701 | 20° | 5km/h | 30812m | 5.2m/s | -43.3°C | 0.0% | 11.0hPa | 0V | 00:00:00 | 00:00:00 | 00:00:00 | |
| AUTORXJP | 2026-09-02 01:09:53 | 43.90145 | 5.27724 | 94° | 15km/h | 30656m | 5.0m/s | -43.2°C | 0.0% | 11.3hPa | 0V | 00:00:00 | 00:00:00 | 00:00:00 | |
| AUTORXJP | 2026-09-02 01:09:22 | 43.90174 | 5.27835 | 232° | 33km/h | 30506m | 5.3m/s | -43.3°C | 0.0% | 11.5hPa | 0V | 00:00:00 | 00:00:00 | 00:00:00 | |
| AUTORXJP | 2026-09-02 01:08:20 | 43.90255 | 5.28062 | 336° | 20km/h | 30215m | 4.0m/s | -43.1°C | 0.0% | 12.1hPa | 0V | 00:00:00 | 00:00:00 | 00:00:00 | |
| AUTORXJP | 2026-09-02 01:07:49 | 43.90285 | 5.28102 | 229° | 26km/h | 30074m | 5.9m/s | -42.3°C | 0.0% | 12.3hPa | 0V | 00:00:00 | 00:00:00 | 00:00:00 | |
| AUTORXJP | 2026-09-02 01:07:18 | 43.90365 | 5.28182 | 331° | 11km/h | 29929m | 3.7m/s | -42.1°C | 0.0% | 12.6hPa | 0V | 00:00:00 | 00:00:00 | 00:00:00 | |
| AUTORXJP | 2026-09-02 01:06:47 | 43.90420 | 5.28193 | 166° | 16km/h | 29785m | 5.2m/s | -43.0°C | 0.0% | 12.9hPa | 0V | 00:00:00 | 00:00:00 | 00:00:00 | |
| AUTORXJP | 2026-09-02 01:06:16 | 43.90459 | 5.28190 | 113° | 15km/h | 29631m | 5.1m/s | -43.5°C | 0.0% | 13.2hPa | 0V | 00:00:00 | 00:00:00 | 00:00:00 | |
| AUTORXJP | 2026-09-02 01:05:45 | 43.90490 | 5.28172 | 154° | 7km/h | 29477m | 6.0m/s | -43.6°C | 0.0% | 13.5hPa | 0V | 00:00:00 | 00:00:00 | 00:00:00 | |
| AUTORXJP | 2026-09-02 01:05:14 | 43.90530 | 5.28145 | 31° | 2km/h | 29323m | 4.4m/s | -44.1°C | 0.0% | 13.8hPa | 0V | 00:00:00 | 00:00:00 | 00:00:00 | |
| AUTORXJP | 2026-09-02 01:04:43 | 43.90523 | 5.28127 | 41° | 9km/h | 29170m | 6.0m/s | -43.7°C | 0.0% | 14.2hPa | 0V | 00:00:00 | 00:00:00 | 00:00:00 | |
| AUTORXJP | 2026-09-02 01:04:12 | 43.90499 | 5.28074 | 247° | 4km/h | 29020m | 3.5m/s | -44.0°C | 0.0% | 14.5hPa | 0V | 00:00:00 | 00:00:00 | 00:00:00 | |
| AUTORXJP | 2026-09-02 01:03:40 | 43.90451 | 5.27982 | 36° | 20km/h | 28869m | 5.2m/s | -43.8°C | 0.0% | 14.8hPa | 0V | 00:00:00 | 00:00:00 | 00:00:00 | |
| AUTORXJP | 2026-09-02 01:03:09 | 43.90372 | 5.27871 | 26° | 27km/h | 28719m | 4.3m/s | -44.5°C | 0.0% | 15.2hPa | 0V | 00:00:00 | 00:00:00 | 00:00:00 | |
| AUTORXJP | 2026-09-02 01:02:38 | 43.90280 | 5.27811 | 311° | 9km/h | 28565m | 4.3m/s | -44.4°C | 0.0% | 15.5hPa | 0V | 00:00:00 | 00:00:00 | 00:00:00 | |
| AUTORXJP | 2026-09-02 01:02:07 | 43.90234 | 5.27791 | 86° | 4km/h | 28420m | 5.5m/s | -44.3°C | 0.0% | 15.9hPa | 0V | 00:00:00 | 00:00:00 | 00:00:00 | |
| AUTORXJP | 2026-09-02 01:01:36 | 43.90184 | 5.27723 | 86° | 11km/h | 28270m | 3.7m/s | -45.0°C | 0.0% | 16.3hPa | 0V | 00:00:00 | 00:00:00 | 00:00:00 | |
| AUTORXJP | 2026-09-02 01:01:05 | 43.90038 | 5.27641 | 352° | 13km/h | 28118m | 4.0m/s | -45.5°C | 0.0% | 16.6hPa | 0V | 00:00:00 | 00:00:00 | 00:00:00 | |
| AUTORXJP | 2026-09-02 01:00:34 | 43.89842 | 5.27616 | 344° | 16km/h | 27968m | 4.2m/s | -46.5°C | 0.0% | 17.0hPa | 0V | 00:00:00 | 00:00:00 | 00:00:00 | |
| AUTORXJP | 2026-09-02 00:59:32 | 43.89453 | 5.28018 | 322° | 27km/h | 27666m | 4.6m/s | -46.3°C | 0.0% | 17.8hPa | 0V | 00:00:00 | 00:00:00 | 00:00:00 | |
| AUTORXJP | 2026-09-02 00:59:01 | 43.89354 | 5.28172 | 216° | 5km/h | 27514m | 5.9m/s | -45.8°C | 0.0% | 18.3hPa | 0V | 00:00:00 | 00:00:00 | 00:00:00 | |
| AUTORXJP | 2026-09-02 00:58:30 | 43.89328 | 5.28207 | 136° | 11km/h | 27364m | 6.3m/s | -46.2°C | 0.0% | 18.7hPa | 0V | 00:00:00 | 00:00:00 | 00:00:00 | |
| AUTORXJP | 2026-09-02 00:57:59 | 43.89303 | 5.28281 | 293° | 13km/h | 27215m | 5.3m/s | -46.3°C | 0.0% | 19.1hPa | 0V | 00:00:00 | 00:00:00 | 00:00:00 | |
| AUTORXJP | 2026-09-02 00:57:27 | 43.89254 | 5.28320 | 5° | 11km/h | 27066m | 4.9m/s | -46.7°C | 0.0% | 19.6hPa | 0V | 00:00:00 | 00:00:00 | 00:00:00 | |
| AUTORXJP | 2026-09-02 00:56:56 | 43.89202 | 5.28408 | 317° | 24km/h | 26915m | 6.0m/s | -48.1°C | 0.0% | 20.0hPa | 0V | 00:00:00 | 00:00:00 | 00:00:00 | |
| AUTORXJP | 2026-09-02 00:56:25 | 43.89094 | 5.28591 | 270° | 40km/h | 26768m | 4.8m/s | -48.9°C | 0.0% | 20.5hPa | 0V | 00:00:00 | 00:00:00 | 00:00:00 | |
| AUTORXJP | 2026-09-02 00:55:54 | 43.89074 | 5.28765 | 201° | 16km/h | 26620m | 4.7m/s | -49.2°C | 0.0% | 20.9hPa | 0V | 00:00:00 | 00:00:00 | 00:00:00 | |
| AUTORXJP | 2026-09-02 00:55:23 | 43.89093 | 5.28743 | 101° | 15km/h | 26477m | 5.0m/s | -49.3°C | 0.0% | 21.4hPa | 0V | 00:00:00 | 00:00:00 | 00:00:00 | |
| AUTORXJP | 2026-09-02 00:54:52 | 43.89095 | 5.28680 | 158° | 4km/h | 26336m | 4.7m/s | -49.3°C | 0.0% | 21.9hPa | 0V | 00:00:00 | 00:00:00 | 00:00:00 | |
| AUTORXJP | 2026-09-02 00:54:21 | 43.89153 | 5.28707 | 179° | 13km/h | 26196m | 4.2m/s | -49.6°C | 0.0% | 22.4hPa | 0V | 00:00:00 | 00:00:00 | 00:00:00 | |
| AUTORXJP | 2026-09-02 00:53:50 | 43.89193 | 5.28776 | 307° | 18km/h | 26058m | 3.3m/s | -49.7°C | 0.0% | 22.9hPa | 0V | 00:00:00 | 00:00:00 | 00:00:00 | |
| AUTORXJP | 2026-09-02 00:53:19 | 43.89183 | 5.28776 | 259° | 13km/h | 25917m | 5.0m/s | -50.4°C | 0.0% | 23.3hPa | 0V | 00:00:00 | 00:00:00 | 00:00:00 | |
| AUTORXJP | 2026-09-02 00:52:48 | 43.89179 | 5.28786 | 291° | 9km/h | 25771m | 3.9m/s | -50.7°C | 0.0% | 23.9hPa | 0V | 00:00:00 | 00:00:00 | 00:00:00 | |
| AUTORXJP | 2026-09-02 00:52:17 | 43.89198 | 5.28844 | 278° | 5km/h | 25623m | 5.2m/s | -50.5°C | 0.0% | 24.4hPa | 0V | 00:00:00 | 00:00:00 | 00:00:00 | |
| AUTORXJP | 2026-09-02 00:51:46 | 43.89139 | 5.28818 | 22° | 5km/h | 25472m | 4.8m/s | -50.7°C | 0.0% | 25.0hPa | 0V | 00:00:00 | 00:00:00 | 00:00:00 | |
| AUTORXJP | 2026-09-02 00:51:14 | 43.89053 | 5.28834 | 256° | 4km/h | 25321m | 3.7m/s | -51.5°C | 0% | 25.6hPa | 0V | 00:00:00 | 00:00:00 | 00:00:00 | |
| AUTORXJP | 2026-09-02 00:50:43 | 43.88998 | 5.28967 | 305° | 5km/h | 25174m | 5.7m/s | -51.4°C | 0.0% | 26.2hPa | 0V | 00:00:00 | 00:00:00 | 00:00:00 | |
| AUTORXJP | 2026-09-02 00:50:13 | 43.89045 | 5.29103 | 234° | 7km/h | 25026m | 4.6m/s | -51.2°C | 0.0% | 26.8hPa | 0V | 00:00:00 | 00:00:00 | 00:00:00 | |
| AUTORXJP | 2026-09-02 00:49:41 | 43.89140 | 5.29121 | 165° | 9km/h | 24884m | 4.4m/s | -51.1°C | 0.0% | 27.4hPa | 0V | 00:00:00 | 00:00:00 | 00:00:00 | |
| AUTORXJP | 2026-09-02 00:49:10 | 43.89186 | 5.29087 | 25° | 4km/h | 24744m | 4.8m/s | -51.0°C | 0.0% | 28.0hPa | 0V | 00:00:00 | 00:00:00 | 00:00:00 | |
| AUTORXJP | 2026-09-02 00:48:39 | 43.89198 | 5.29089 | 187° | 18km/h | 24603m | 5.0m/s | -51.2°C | 0.0% | 28.6hPa | 0V | 00:00:00 | 00:00:00 | 00:00:00 | |
| AUTORXJP | 2026-09-02 00:48:08 | 43.89223 | 5.29008 | 132° | 9km/h | 24460m | 5.1m/s | -52.2°C | 0.0% | 29.3hPa | 0V | 00:00:00 | 00:00:00 | 00:00:00 | |
| AUTORXJP | 2026-09-02 00:47:37 | 43.89143 | 5.28923 | 35° | 16km/h | 24311m | 4.6m/s | -52.5°C | 0.0% | 30.0hPa | 0V | 00:00:00 | 00:00:00 | 00:00:00 | |
| AUTORXJP | 2026-09-02 00:47:06 | 43.89074 | 5.29007 | 206° | 4km/h | 24159m | 4.6m/s | -52.6°C | 0.0% | 30.7hPa | 0V | 00:00:00 | 00:00:00 | 00:00:00 | |
| AUTORXJP | 2026-09-02 00:46:35 | 43.89117 | 5.29060 | 142° | 9km/h | 24013m | 5.2m/s | -53.3°C | 0.0% | 31.4hPa | 0V | 00:00:00 | 00:00:00 | 00:00:00 | |
| AUTORXJP | 2026-09-02 00:46:04 | 43.89174 | 5.29057 | 158° | 4km/h | 23871m | 4.1m/s | -53.2°C | 0.0% | 32.1hPa | 0V | 00:00:00 | 00:00:00 | 00:00:00 | |
| AUTORXJP | 2026-09-02 00:45:33 | 43.89209 | 5.29068 | 129° | 9km/h | 23739m | 4.8m/s | -53.5°C | 0.0% | 32.8hPa | 0V | 00:00:00 | 00:00:00 | 00:00:00 | |
| AUTORXJP | 2026-09-02 00:45:01 | 43.89190 | 5.29035 | 352° | 11km/h | 23611m | 4.9m/s | -53.8°C | 0.0% | 33.4hPa | 0V | 00:00:00 | 00:00:00 | 00:00:00 | |
| AUTORXJP | 2026-09-02 00:44:30 | 43.89137 | 5.29065 | 335° | 13km/h | 23478m | 5.0m/s | -53.7°C | 0.0% | 34.1hPa | 0V | 00:00:00 | 00:00:00 | 00:00:00 | |
| AUTORXJP | 2026-09-02 00:43:59 | 43.89070 | 5.29222 | 276° | 22km/h | 23343m | 3.7m/s | -54.0°C | 0.0% | 34.9hPa | 0V | 00:00:00 | 00:00:00 | 00:00:00 | |
| AUTORXJP | 2026-09-02 00:43:28 | 43.89052 | 5.29413 | 256° | 18km/h | 23200m | 5.1m/s | -53.9°C | 0.0% | 35.7hPa | 0V | 00:00:00 | 00:00:00 | 00:00:00 | |
| AUTORXJP | 2026-09-02 00:42:57 | 43.89133 | 5.29572 | 234° | 24km/h | 23057m | 4.3m/s | -53.6°C | 0.0% | 36.5hPa | 0V | 00:00:00 | 00:00:00 | 00:00:00 | |
| AUTORXJP | 2026-09-02 00:42:26 | 43.89272 | 5.29646 | 169° | 18km/h | 22917m | 5.0m/s | -53.6°C | 0.0% | 37.3hPa | 0V | 00:00:00 | 00:00:00 | 00:00:00 | |
| AUTORXJP | 2026-09-02 00:41:55 | 43.89422 | 5.29539 | 137° | 20km/h | 22780m | 4.0m/s | -53.5°C | 0.0% | 38.1hPa | 0V | 00:00:00 | 00:00:00 | 00:00:00 | |
| AUTORXJP | 2026-09-02 00:41:24 | 43.89522 | 5.29344 | 81° | 15km/h | 22642m | 3.9m/s | -54.0°C | 0.0% | 38.9hPa | 0V | 00:00:00 | 00:00:00 | 00:00:00 | |
| AUTORXJP | 2026-09-02 00:40:53 | 43.89525 | 5.29169 | 74° | 9km/h | 22507m | 4.7m/s | -54.2°C | 0.0% | 39.8hPa | 0V | 00:00:00 | 00:00:00 | 00:00:00 | |
| AUTORXJP | 2026-09-02 00:40:22 | 43.89462 | 5.29078 | 74° | 9km/h | 22372m | 5.0m/s | -54.4°C | 0.0% | 40.6hPa | 0V | 00:00:00 | 00:00:00 | 00:00:00 | |
| AUTORXJP | 2026-09-02 00:39:51 | 43.89350 | 5.29036 | 4° | 20km/h | 22237m | 4.2m/s | -54.6°C | 0.0% | 41.5hPa | 0V | 00:00:00 | 00:00:00 | 00:00:00 | |
| AUTORXJP | 2026-09-02 00:39:20 | 43.89221 | 5.29087 | 322° | 16km/h | 22099m | 4.7m/s | -54.5°C | 0.0% | 42.4hPa | 0V | 00:00:00 | 00:00:00 | 00:00:00 | |
| AUTORXJP | 2026-09-02 00:38:48 | 43.89123 | 5.29172 | 306° | 11km/h | 21963m | 3.9m/s | -54.6°C | 0.0% | 43.3hPa | 0V | 00:00:00 | 00:00:00 | 00:00:00 | |
| AUTORXJP | 2026-09-02 00:38:17 | 43.89073 | 5.29323 | 281° | 20km/h | 21820m | 5.1m/s | -54.8°C | 0.0% | 44.3hPa | 0V | 00:00:00 | 00:00:00 | 00:00:00 | |
| AUTORXJP | 2026-09-02 00:37:46 | 43.89106 | 5.29599 | 245° | 22km/h | 21677m | 4.4m/s | -54.9°C | 0.0% | 45.3hPa | 0V | 00:00:00 | 00:00:00 | 00:00:00 | |
| AUTORXJP | 2026-09-02 00:37:15 | 43.89199 | 5.29762 | 211° | 15km/h | 21540m | 3.8m/s | -54.7°C | 0.0% | 46.3hPa | 0V | 00:00:00 | 00:00:00 | 00:00:00 | |
| AUTORXJP | 2026-09-02 00:36:13 | 43.89261 | 5.29837 | 314° | 4km/h | 21268m | 3.7m/s | -54.5°C | 0.0% | 48.3hPa | 0V | 00:00:00 | 00:00:00 | 00:00:00 | |
| AUTORXJP | 2026-09-02 00:35:42 | 43.89238 | 5.29852 | 151° | 2km/h | 21145m | 3.1m/s | -54.3°C | 0.1% | 49.2hPa | 0V | 00:00:00 | 00:00:00 | 00:00:00 | |
| AUTORXJP | 2026-09-02 00:35:11 | 43.89278 | 5.29895 | 252° | 9km/h | 21013m | 3.1m/s | -54.4°C | 0.1% | 50.2hPa | 0V | 00:00:00 | 00:00:00 | 00:00:00 | |
| AUTORXJP | 2026-09-02 00:34:40 | 43.89265 | 5.29953 | 292° | 4km/h | 20885m | 4.9m/s | -54.6°C | 0.1% | 51.3hPa | 0V | 00:00:00 | 00:00:00 | 00:00:00 | |
| AUTORXJP | 2026-09-02 00:34:09 | 43.89280 | 5.29937 | 45° | 11km/h | 20752m | 4.3m/s | -54.7°C | 0.2% | 52.3hPa | 0V | 00:00:00 | 00:00:00 | 00:00:00 | |
| AUTORXJP | 2026-09-02 00:33:38 | 43.89375 | 5.29760 | 130° | 18km/h | 20616m | 3.4m/s | -55.3°C | 0.2% | 53.5hPa | 0V | 00:00:00 | 00:00:00 | 00:00:00 | |
| AUTORXJP | 2026-09-02 00:32:36 | 43.89416 | 5.29502 | 116° | 13km/h | 20344m | 4.9m/s | -55.5°C | 0.2% | 55.8hPa | 0V | 00:00:00 | 00:00:00 | 00:00:00 | |
| AUTORXJP | 2026-09-02 00:32:04 | 43.89465 | 5.29313 | 96° | 29km/h | 20209m | 4.8m/s | -56.7°C | 0.1% | 57.0hPa | 0V | 00:00:00 | 00:00:00 | 00:00:00 | |
| AUTORXJP | 2026-09-02 00:31:33 | 43.89455 | 5.29062 | 68° | 15km/h | 20067m | 4.0m/s | -57.3°C | 0.2% | 58.3hPa | 0V | 00:00:00 | 00:00:00 | 00:00:00 | |
| AUTORXJP | 2026-09-02 00:31:02 | 43.89451 | 5.28876 | 94° | 22km/h | 19937m | 3.8m/s | -57.8°C | 0.3% | 59.5hPa | 0V | 00:00:00 | 00:00:00 | 00:00:00 | |
| AUTORXJP | 2026-09-02 00:30:31 | 43.89466 | 5.28585 | 56° | 22km/h | 19809m | 3.2m/s | -57.3°C | 0.5% | 60.7hPa | 0V | 00:00:00 | 00:00:00 | 00:00:00 | |
| AUTORXJP | 2026-09-02 00:30:00 | 43.89431 | 5.28379 | 82° | 18km/h | 19682m | 3.5m/s | -56.5°C | 0.6% | 62.0hPa | 0V | 00:00:00 | 00:00:00 | 00:00:00 | |
| AUTORXJP | 2026-09-02 00:29:29 | 43.89413 | 5.28280 | 134° | 5km/h | 19554m | 3.8m/s | -56.8°C | 0.6% | 63.2hPa | 0V | 00:00:00 | 00:00:00 | 00:00:00 | |
| AUTORXJP | 2026-09-02 00:28:58 | 43.89453 | 5.28096 | 102° | 24km/h | 19427m | 4.3m/s | -57.3°C | 0.6% | 64.5hPa | 0V | 00:00:00 | 00:00:00 | 00:00:00 | |
| AUTORXJP | 2026-09-02 00:28:27 | 43.89471 | 5.27753 | 89° | 35km/h | 19295m | 4.0m/s | -57.3°C | 0.7% | 65.9hPa | 0V | 00:00:00 | 00:00:00 | 00:00:00 | |
| AUTORXJP | 2026-09-02 00:27:56 | 43.89442 | 5.27360 | 67° | 33km/h | 19168m | 5.1m/s | -57.9°C | 0.8% | 67.2hPa | 0V | 00:00:00 | 00:00:00 | 00:00:00 | |
| AUTORXJP | 2026-09-02 00:27:25 | 43.89372 | 5.27055 | 73° | 16km/h | 19038m | 3.7m/s | -57.3°C | 0.9% | 68.6hPa | 0V | 00:00:00 | 00:00:00 | 00:00:00 | |
| AUTORXJP | 2026-09-02 00:26:54 | 43.89304 | 5.26852 | 55° | 15km/h | 18914m | 4.6m/s | -56.8°C | 0.9% | 70.0hPa | 0V | 00:00:00 | 00:00:00 | 00:00:00 | |
| AUTORXJP | 2026-09-02 00:26:22 | 43.89312 | 5.26714 | 108° | 33km/h | 18791m | 3.3m/s | -57.6°C | 0.8% | 71.4hPa | 0V | 00:00:00 | 00:00:00 | 00:00:00 | |
| AUTORXJP | 2026-09-02 00:25:51 | 43.89433 | 5.26431 | 123° | 37km/h | 18669m | 4.5m/s | -58.0°C | 0.8% | 72.8hPa | 0V | 00:00:00 | 00:00:00 | 00:00:00 | |
| AUTORXJP | 2026-09-02 00:25:20 | 43.89603 | 5.26022 | 103° | 37km/h | 18544m | 3.6m/s | -58.9°C | 0.8% | 74.2hPa | 0V | 00:00:00 | 00:00:00 | 00:00:00 | |
| AUTORXJP | 2026-09-02 00:24:49 | 43.89662 | 5.25599 | 98° | 42km/h | 18416m | 3.9m/s | -58.4°C | 0.9% | 75.8hPa | 0V | 00:00:00 | 00:00:00 | 00:00:00 | |
| AUTORXJP | 2026-09-02 00:24:18 | 43.89630 | 5.25158 | 87° | 51km/h | 18285m | 4.2m/s | -58.8°C | 0.9% | 77.4hPa | 0V | 00:00:00 | 00:00:00 | 00:00:00 | |
| AUTORXJP | 2026-09-02 00:23:47 | 43.89525 | 5.24715 | 69° | 33km/h | 18148m | 4.6m/s | -58.0°C | 1.0% | 79.0hPa | 0V | 00:00:00 | 00:00:00 | 00:00:00 | |
| AUTORXJP | 2026-09-02 00:23:16 | 43.89438 | 5.24402 | 64° | 24km/h | 18011m | 4.6m/s | -58.1°C | 1.1% | 80.8hPa | 0V | 00:00:00 | 00:00:00 | 00:00:00 | |
| AUTORXJP | 2026-09-02 00:22:45 | 43.89400 | 5.24125 | 91° | 31km/h | 17875m | 3.9m/s | -58.0°C | 1.2% | 82.6hPa | 0V | 00:00:00 | 00:00:00 | 00:00:00 | |
| AUTORXJP | 2026-09-02 00:22:14 | 43.89398 | 5.23733 | 82° | 31km/h | 17741m | 3.4m/s | -57.5°C | 1.4% | 84.3hPa | 0V | 00:00:00 | 00:00:00 | 00:00:00 | |
| AUTORXJP | 2026-09-02 00:21:43 | 43.89391 | 5.23371 | 93° | 35km/h | 17611m | 4.5m/s | -56.8°C | 1.6% | 86.1hPa | 0V | 00:00:00 | 00:00:00 | 00:00:00 | |
| AUTORXJP | 2026-09-02 00:21:12 | 43.89389 | 5.23073 | 89° | 26km/h | 17485m | 3.6m/s | -56.2°C | 1.9% | 87.8hPa | 0V | 00:00:00 | 00:00:00 | 00:00:00 | |
| AUTORXJP | 2026-09-02 00:20:41 | 43.89437 | 5.22817 | 104° | 33km/h | 17353m | 3.7m/s | -56.6°C | 2.1% | 89.7hPa | 0V | 00:00:00 | 00:00:00 | 00:00:00 | |
| AUTORXJP | 2026-09-02 00:20:10 | 43.89486 | 5.22476 | 108° | 27km/h | 17222m | 5.1m/s | -55.7°C | 2.4% | 91.5hPa | 0V | 00:00:00 | 00:00:00 | 00:00:00 | |
| AUTORXJP | 2026-09-02 00:19:38 | 43.89569 | 5.22189 | 101° | 35km/h | 17095m | 4.9m/s | -55.6°C | 2.6% | 93.4hPa | 0V | 00:00:00 | 00:00:00 | 00:00:00 | |
| AUTORXJP | 2026-09-02 00:19:08 | 43.89612 | 5.21754 | 87° | 46km/h | 16966m | 4.6m/s | -56.4°C | 2.8% | 95.3hPa | 0V | 00:00:00 | 00:00:00 | 00:00:00 | |
| AUTORXJP | 2026-09-02 00:18:36 | 43.89555 | 5.21231 | 78° | 49km/h | 16848m | 4.0m/s | -56.4°C | 3.2% | 97.1hPa | 0V | 00:00:00 | 00:00:00 | 00:00:00 | |
| AUTORXJP | 2026-09-02 00:18:05 | 43.89514 | 5.20731 | 93° | 51km/h | 16723m | 5.0m/s | -56.0°C | 3.2% | 99.0hPa | 0V | 00:00:00 | 00:00:00 | 00:00:00 | |
| AUTORXJP | 2026-09-02 00:17:34 | 43.89536 | 5.20158 | 91° | 57km/h | 16609m | 4.1m/s | -57.0°C | 3.4% | 100.8hPa | 0V | 00:00:00 | 00:00:00 | 00:00:00 | |
| AUTORXJP | 2026-09-02 00:17:03 | 43.89533 | 5.19517 | 90° | 62km/h | 16496m | 4.0m/s | -57.9°C | 3.5% | 102.6hPa | 0V | 00:00:00 | 00:00:00 | 00:00:00 | |
| AUTORXJP | 2026-09-02 00:16:32 | 43.89496 | 5.18892 | 82° | 53km/h | 16388m | 2.3m/s | -57.7°C | 3.6% | 104.4hPa | 0V | 00:00:00 | 00:00:00 | 00:00:00 | |
| AUTORXJP | 2026-09-02 00:16:01 | 43.89449 | 5.18299 | 88° | 58km/h | 16274m | 4.0m/s | -57.6°C | 3.7% | 106.3hPa | 0V | 00:00:00 | 00:00:00 | 00:00:00 | |
| AUTORXJP | 2026-09-02 00:15:30 | 43.89459 | 5.17669 | 94° | 58km/h | 16157m | 3.5m/s | -58.0°C | 3.8% | 108.3hPa | 0V | 00:00:00 | 00:00:00 | 00:00:00 | |
| AUTORXJP | 2026-09-02 00:14:59 | 43.89520 | 5.16940 | 93° | 68km/h | 16041m | 3.4m/s | -57.9°C | 4.0% | 110.3hPa | 0V | 00:00:00 | 00:00:00 | 00:00:00 | |
| AUTORXJP | 2026-09-02 00:14:28 | 43.89513 | 5.16268 | 88° | 55km/h | 15925m | 4.5m/s | -58.0°C | 3.9% | 112.3hPa | 0V | 00:00:00 | 00:00:00 | 00:00:00 | |
| AUTORXJP | 2026-09-02 00:12:54 | 43.89529 | 5.14172 | 92° | 62km/h | 15555m | 3.6m/s | -58.2°C | 4.3% | 119.1hPa | 0V | 00:00:00 | 00:00:00 | 00:00:00 | |
| AUTORXJP | 2026-09-02 00:12:23 | 43.89567 | 5.13475 | 95° | 58km/h | 15433m | 3.3m/s | -57.7°C | 4.5% | 121.5hPa | 0V | 00:00:00 | 00:00:00 | 00:00:00 | |
| AUTORXJP | 2026-09-02 00:11:52 | 43.89628 | 5.12686 | 96° | 73km/h | 15303m | 4.3m/s | -57.6°C | 4.7% | 124.0hPa | 0V | 00:00:00 | 00:00:00 | 00:00:00 | |
| AUTORXJP | 2026-09-02 00:11:21 | 43.89714 | 5.11948 | 102° | 69km/h | 15180m | 3.5m/s | -57.5°C | 4.9% | 126.5hPa | 0V | 00:00:00 | 00:00:00 | 00:00:00 | |
| AUTORXJP | 2026-09-02 00:10:50 | 43.89814 | 5.11177 | 96° | 75km/h | 15057m | 3.2m/s | -57.7°C | 5.1% | 129.0hPa | 0V | 00:00:00 | 00:00:00 | 00:00:00 | |
| AUTORXJP | 2026-09-02 00:10:19 | 43.89831 | 5.10382 | 90° | 77km/h | 14933m | 4.2m/s | -57.2°C | 5.2% | 131.5hPa | 0V | 00:00:00 | 00:00:00 | 00:00:00 | |
| AUTORXJP | 2026-09-02 00:09:49 | 43.89813 | 5.09550 | 87° | 75km/h | 14817m | 4.1m/s | -57.7°C | 5.2% | 134.0hPa | 0V | 00:00:00 | 00:00:00 | 00:00:00 | |
| AUTORXJP | 2026-09-02 00:09:17 | 43.89767 | 5.08676 | 85° | 86km/h | 14703m | 2.0m/s | -57.9°C | 5.4% | 136.4hPa | 0V | 00:00:00 | 00:00:00 | 00:00:00 | |
| AUTORXJP | 2026-09-02 00:08:46 | 43.89668 | 5.07761 | 81° | 82km/h | 14593m | 4.2m/s | -57.3°C | 5.5% | 138.8hPa | 0V | 00:00:00 | 00:00:00 | 00:00:00 | |
| AUTORXJP | 2026-09-02 00:08:15 | 43.89563 | 5.06850 | 82° | 77km/h | 14480m | 3.8m/s | -57.2°C | 5.7% | 141.4hPa | 0V | 00:00:00 | 00:00:00 | 00:00:00 | |
| AUTORXJP | 2026-09-02 00:07:44 | 43.89421 | 5.05974 | 74° | 78km/h | 14361m | 2.6m/s | -57.4°C | 5.9% | 144.0hPa | 0V | 00:00:00 | 00:00:00 | 00:00:00 | |
| AUTORXJP | 2026-09-02 00:06:42 | 43.89085 | 5.04484 | 76° | 68km/h | 14118m | 4.0m/s | -56.2°C | 6.9% | 149.7hPa | 0V | 00:00:00 | 00:00:00 | 00:00:00 | |
| AUTORXJP | 2026-09-02 00:06:10 | 43.88934 | 5.03712 | 72° | 73km/h | 13987m | 4.4m/s | -55.6°C | 7.6% | 152.8hPa | 0V | 00:00:00 | 00:00:00 | 00:00:00 | |
| AUTORXJP | 2026-09-02 00:05:39 | 43.88797 | 5.02925 | 77° | 69km/h | 13851m | 3.6m/s | -55.4°C | 8.3% | 156.1hPa | 0V | 00:00:00 | 00:00:00 | 00:00:00 | |
| AUTORXJP | 2026-09-02 00:05:08 | 43.88688 | 5.02196 | 72° | 77km/h | 13729m | 4.6m/s | -55.2°C | 9.3% | 159.1hPa | 0V | 00:00:00 | 00:00:00 | 00:00:00 | |
| AUTORXJP | 2026-09-02 00:04:37 | 43.88486 | 5.01429 | 71° | 73km/h | 13606m | 4.7m/s | -54.7°C | 10.2% | 162.2hPa | 0V | 00:00:00 | 00:00:00 | 00:00:00 | |
| AUTORXJP | 2026-09-02 00:04:08 | 43.88318 | 5.00721 | 76° | 62km/h | 13491m | 4.0m/s | -54.6°C | 11.2% | 165.2hPa | 0V | 00:00:00 | 00:00:00 | 00:00:00 | |
| AUTORXJP | 2026-09-02 00:03:37 | 43.88207 | 5.00052 | 80° | 57km/h | 13384m | 4.0m/s | -54.9°C | 12.2% | 167.9hPa | 0V | 00:00:00 | 00:00:00 | 00:00:00 | |
| AUTORXJP | 2026-09-02 00:03:18 | 43.88118 | 4.99452 | 81° | 55km/h | 13271m | 3.8m/s | -55.3°C | 13.4% | 171.0hPa | 0V | 00:00:00 | 00:00:00 | 00:00:00 | |
| AUTORXJP | 2026-09-02 00:02:41 | 43.88072 | 4.98818 | 89° | 62km/h | 13145m | 3.8m/s | -54.7°C | 15.0% | 174.3hPa | 0V | 00:00:00 | 00:00:00 | 00:00:00 | |
| AUTORXJP | 2026-09-02 00:02:09 | 43.88116 | 4.98070 | 93° | 75km/h | 13010m | 4.3m/s | -54.4°C | 17.0% | 178.1hPa | 0V | 00:00:00 | 00:00:00 | 00:00:00 | |
| AUTORXJP | 2026-09-02 00:01:39 | 43.88237 | 4.97145 | 99° | 88km/h | 12875m | 3.7m/s | -54.2°C | 19.1% | 181.8hPa | 0V | 00:00:00 | 00:00:00 | 00:00:00 | |
| AUTORXJP | 2026-09-02 00:00:33 | 43.88404 | 4.95207 | 96° | 93km/h | 12625m | 3.5m/s | -55.3°C | 25.9% | 189.1hPa | 0V | 00:00:00 | 00:00:00 | 00:00:00 | |
| AUTORXJP | 2026-09-01 23:59:57 | 43.88480 | 4.94128 | 94° | 104km/h | 12511m | 3.2m/s | -54.7°C | 30.9% | 192.5hPa | 0V | 00:00:00 | 00:00:00 | 00:00:00 | |
| AUTORXJP | 2026-09-01 23:59:26 | 43.88478 | 4.92998 | 86° | 99km/h | 12410m | 2.7m/s | -57.0°C | 35.4% | 195.6hPa | 0V | 00:00:00 | 00:00:00 | 00:00:00 | |
| AUTORXJP | 2026-09-01 23:58:55 | 43.88432 | 4.91916 | 87° | 99km/h | 12308m | 3.4m/s | -56.9°C | 39.2% | 198.8hPa | 0V | 00:00:00 | 00:00:00 | 00:00:00 | |
| AUTORXJP | 2026-09-01 23:58:24 | 43.88405 | 4.90770 | 89° | 106km/h | 12205m | 3.2m/s | -56.3°C | 44.3% | 202.1hPa | 0V | 00:00:00 | 00:00:00 | 00:00:00 | |
| AUTORXJP | 2026-09-01 23:57:53 | 43.88339 | 4.89617 | 82° | 113km/h | 12096m | 3.9m/s | -56.4°C | 51.0% | 205.6hPa | 0V | 00:00:00 | 00:00:00 | 00:00:00 | |
| AUTORXJP | 2026-09-01 23:57:22 | 43.88226 | 4.88477 | 81° | 100km/h | 11988m | 3.0m/s | -56.7°C | 58.2% | 209.1hPa | 0V | 00:00:00 | 00:00:00 | 00:00:00 | |
| AUTORXJP | 2026-09-01 23:56:51 | 43.88051 | 4.87367 | 76° | 108km/h | 11871m | 3.6m/s | -57.3°C | 58.9% | 213.0hPa | 0V | 00:00:00 | 00:00:00 | 00:00:00 | |
| AUTORXJP | 2026-09-01 23:56:20 | 43.87864 | 4.86250 | 77° | 106km/h | 11757m | 3.2m/s | -56.2°C | 57.5% | 216.9hPa | 0V | 00:00:00 | 00:00:00 | 00:00:00 | |
| AUTORXJP | 2026-09-01 23:55:49 | 43.87684 | 4.85119 | 78° | 106km/h | 11640m | 3.6m/s | -55.2°C | 57.0% | 220.9hPa | 0V | 00:00:00 | 00:00:00 | 00:00:00 | |
| AUTORXJP | 2026-09-01 23:55:18 | 43.87510 | 4.83971 | 79° | 110km/h | 11528m | 3.5m/s | -54.3°C | 58.4% | 224.8hPa | 0V | 00:00:00 | 00:00:00 | 00:00:00 | |
| AUTORXJP | 2026-09-01 23:54:47 | 43.87331 | 4.82811 | 78° | 106km/h | 11417m | 3.8m/s | -53.4°C | 58.3% | 228.8hPa | 0V | 00:00:00 | 00:00:00 | 00:00:00 | |
| AUTORXJP | 2026-09-01 23:54:15 | 43.87143 | 4.81691 | 78° | 100km/h | 11309m | 3.6m/s | -52.6°C | 57.9% | 232.6hPa | 0V | 00:00:00 | 00:00:00 | 00:00:00 | |
| AUTORXJP | 2026-09-01 23:53:44 | 43.86980 | 4.80590 | 80° | 106km/h | 11203m | 2.8m/s | -51.7°C | 55.2% | 236.5hPa | 0V | 00:00:00 | 00:00:00 | 00:00:00 | |
| AUTORXJP | 2026-09-01 23:53:13 | 43.86829 | 4.79489 | 79° | 100km/h | 11091m | 4.1m/s | -50.6°C | 55.1% | 240.7hPa | 0V | 00:00:00 | 00:00:00 | 00:00:00 | |
| AUTORXJP | 2026-09-01 23:52:42 | 43.86669 | 4.78426 | 76° | 100km/h | 10980m | 3.0m/s | -49.6°C | 54.4% | 244.8hPa | 0V | 00:00:00 | 00:00:00 | 00:00:00 | |
| AUTORXJP | 2026-09-01 23:52:11 | 43.86503 | 4.77380 | 76° | 89km/h | 10866m | 4.0m/s | -48.5°C | 53.2% | 249.1hPa | 0V | 00:00:00 | 00:00:00 | 00:00:00 | |
| AUTORXJP | 2026-09-01 23:51:40 | 43.86338 | 4.76345 | 77° | 93km/h | 10744m | 5.5m/s | -47.5°C | 53.2% | 253.7hPa | 0V | 00:00:00 | 00:00:00 | 00:00:00 | |
| AUTORXJP | 2026-09-01 23:51:09 | 43.86187 | 4.75310 | 79° | 93km/h | 10616m | 4.2m/s | -46.5°C | 54.1% | 258.7hPa | 0V | 00:00:00 | 00:00:00 | 00:00:00 | |
| AUTORXJP | 2026-09-01 23:50:38 | 43.86038 | 4.74285 | 76° | 97km/h | 10493m | 3.9m/s | -45.5°C | 56.1% | 263.5hPa | 0V | 00:00:00 | 00:00:00 | 00:00:00 | |
| AUTORXJP | 2026-09-01 23:50:07 | 43.85920 | 4.73291 | 81° | 88km/h | 10369m | 5.6m/s | -44.6°C | 61.3% | 268.5hPa | 0V | 00:00:00 | 00:00:00 | 00:00:00 | |
| AUTORXJP | 2026-09-01 23:49:36 | 43.85835 | 4.72291 | 84° | 93km/h | 10248m | 3.7m/s | -43.5°C | 61.4% | 273.3hPa | 0V | 00:00:00 | 00:00:00 | 00:00:00 | |
| AUTORXJP | 2026-09-01 23:49:05 | 43.85757 | 4.71274 | 85° | 100km/h | 10129m | 4.7m/s | -42.4°C | 56.4% | 278.2hPa | 0V | 00:00:00 | 00:00:00 | 00:00:00 | |
| AUTORXJP | 2026-09-01 23:48:34 | 43.85711 | 4.70254 | 88° | 91km/h | 9990m | 3.2m/s | -41.3°C | 58.6% | 284.1hPa | 0V | 00:00:00 | 00:00:00 | 00:00:00 | |
| AUTORXJP | 2026-09-01 23:48:03 | 43.85681 | 4.69229 | 88° | 91km/h | 9868m | 3.3m/s | -40.3°C | 60.9% | 289.1hPa | 0V | 00:00:00 | 00:00:00 | 00:00:00 | |
| AUTORXJP | 2026-09-01 23:47:31 | 43.85646 | 4.68237 | 87° | 88km/h | 9755m | 4.4m/s | -39.9°C | 66.5% | 294.0hPa | 0V | 00:00:00 | 00:00:00 | 00:00:00 | |
| AUTORXJP | 2026-09-01 23:47:00 | 43.85621 | 4.67328 | 86° | 77km/h | 9635m | 4.5m/s | -39.3°C | 68.2% | 299.2hPa | 0V | 00:00:00 | 00:00:00 | 00:00:00 | |
| AUTORXJP | 2026-09-01 23:46:29 | 43.85601 | 4.66498 | 89° | 77km/h | 9523m | 3.2m/s | -38.4°C | 70.8% | 304.1hPa | 0V | 00:00:00 | 00:00:00 | 00:00:00 | |
| AUTORXJP | 2026-09-01 23:45:58 | 43.85596 | 4.65703 | 93° | 69km/h | 9411m | 3.0m/s | -37.5°C | 74.3% | 309.1hPa | 0V | 00:00:00 | 00:00:00 | 00:00:00 | |
| AUTORXJP | 2026-09-01 23:44:56 | 43.85599 | 4.64199 | 88° | 71km/h | 9199m | 3.0m/s | -35.9°C | 78.1% | 318.7hPa | 0V | 00:00:00 | 00:00:00 | 00:00:00 | |
| AUTORXJP | 2026-09-01 23:44:25 | 43.85586 | 4.63487 | 86° | 64km/h | 9096m | 4.3m/s | -35.4°C | 73.6% | 323.6hPa | 0V | 00:00:00 | 00:00:00 | 00:00:00 | |
| AUTORXJP | 2026-09-01 23:43:54 | 43.85574 | 4.62805 | 88° | 60km/h | 8989m | 4.0m/s | -34.7°C | 70.9% | 328.6hPa | 0V | 00:00:00 | 00:00:00 | 00:00:00 | |
| AUTORXJP | 2026-09-01 23:43:23 | 43.85549 | 4.62139 | 91° | 55km/h | 8867m | 3.9m/s | -33.9°C | 72.1% | 334.4hPa | 0V | 00:00:00 | 00:00:00 | 00:00:00 | |
| AUTORXJP | 2026-09-01 23:42:52 | 43.85550 | 4.61449 | 99° | 64km/h | 8716m | 6.6m/s | -32.9°C | 74.2% | 341.6hPa | 0V | 00:00:00 | 00:00:00 | 00:00:00 | |
| AUTORXJP | 2026-09-01 23:42:21 | 43.85589 | 4.60790 | 100° | 57km/h | 8570m | 0.9m/s | -32.1°C | 75.0% | 348.8hPa | 0V | 00:00:00 | 00:00:00 | 00:00:00 | |
| AUTORXJP | 2026-09-01 23:41:50 | 43.85683 | 4.60108 | 103° | 62km/h | 8411m | 4.9m/s | -31.0°C | 73.6% | 356.6hPa | 0V | 00:00:00 | 00:00:00 | 00:00:00 | |
| AUTORXJP | 2026-09-01 23:41:19 | 43.85757 | 4.59389 | 95° | 64km/h | 8263m | 4.2m/s | -29.9°C | 71.6% | 364.2hPa | 0V | 00:00:00 | 00:00:00 | 00:00:00 | |
| AUTORXJP | 2026-09-01 23:40:48 | 43.85740 | 4.58697 | 84° | 62km/h | 8149m | 4.9m/s | -29.1°C | 72.6% | 370.1hPa | 0V | 00:00:00 | 00:00:00 | 00:00:00 | |
| AUTORXJP | 2026-09-01 23:40:17 | 43.85690 | 4.57967 | 82° | 68km/h | 8033m | 3.5m/s | -28.6°C | 71.8% | 376.1hPa | 0V | 00:00:00 | 00:00:00 | 00:00:00 | |
| AUTORXJP | 2026-09-01 23:39:45 | 43.85623 | 4.57213 | 82° | 66km/h | 7917m | 4.5m/s | -27.6°C | 72.0% | 382.5hPa | 0V | 00:00:00 | 00:00:00 | 00:00:00 | |
| AUTORXJP | 2026-09-01 23:39:14 | 43.85578 | 4.56470 | 84° | 68km/h | 7797m | 3.2m/s | -26.7°C | 71.8% | 388.8hPa | 0V | 00:00:00 | 00:00:00 | 00:00:00 | |
| AUTORXJP | 2026-09-01 23:38:43 | 43.85555 | 4.55763 | 84° | 66km/h | 7673m | 3.7m/s | -25.6°C | 69.4% | 395.6hPa | 0V | 00:00:00 | 00:00:00 | 00:00:00 | |
| AUTORXJP | 2026-09-01 23:38:12 | 43.85547 | 4.55064 | 89° | 71km/h | 7515m | 4.5m/s | -24.3°C | 69.8% | 404.2hPa | 0V | 00:00:00 | 00:00:00 | 00:00:00 | |
| AUTORXJP | 2026-09-01 23:37:41 | 43.85531 | 4.54360 | 89° | 60km/h | 7370m | 4.5m/s | -23.0°C | 66.0% | 412.4hPa | 0V | 00:00:00 | 00:00:00 | 00:00:00 | |
| AUTORXJP | 2026-09-01 23:37:10 | 43.85518 | 4.53661 | 97° | 68km/h | 7212m | 4.9m/s | -21.8°C | 49.1% | 421.1hPa | 0V | 00:00:00 | 00:00:00 | 00:00:00 | |
| AUTORXJP | 2026-09-01 23:36:39 | 43.85522 | 4.53004 | 97° | 58km/h | 7043m | 5.4m/s | -20.2°C | 51.5% | 431.0hPa | 0V | 00:00:00 | 00:00:00 | 00:00:00 | |
| AUTORXJP | 2026-09-01 23:36:08 | 43.85544 | 4.52354 | 94° | 58km/h | 6906m | 6.2m/s | -19.5°C | 36.6% | 439.3hPa | 0V | 00:00:00 | 00:00:00 | 00:00:00 |